Terminal Aerodrome Forecast
Issued by NWS Honolulu, HI

Current Version | Previous Version | Text Only | Print | Product List | Glossary On
Versions: 1 2 3 4 5 6 7 8 9 10 11 12 13 14 15 16 17 18 19 20 21 22 23 24 25 26 27 28 29 30 31 32 33 34 35 36 37 38 39 40 41 42 43 44 45 46 47 48
000
FTPA31 PHFO 161700 RRA
TAFHNL
TAF
PHNL 161746Z 1618/1724 06015G23KT P6SM VCSH FEW025 SCT040
      TEMPO 1618/1621 04009KT
     FM170600 06015KT P6SM SCT025 BKN040=

USA.gov is the U.S. government's official web portal to all federal, state and local government web resources and services.